sensor_id;sensor_type;location;lat;lon;timestamp;temperature;humidity
17464;DHT22;62705;52.400;13.270;2022-08-19T00:01:56;22.30;99.90
17464;DHT22;62705;52.400;13.270;2022-08-19T00:04:24;22.80;99.90
17464;DHT22;62705;52.400;13.270;2022-08-19T00:06:50;22.40;99.90
17464;DHT22;62705;52.400;13.270;2022-08-19T00:09:18;22.40;99.90
17464;DHT22;62705;52.400;13.270;2022-08-19T00:11:45;22.50;99.90
17464;DHT22;62705;52.400;13.270;2022-08-19T00:14:12;22.40;99.90
17464;DHT22;62705;52.400;13.270;2022-08-19T00:16:39;22.20;99.90
17464;DHT22;62705;52.400;13.270;2022-08-19T10:12:24;30.90;99.90
17464;DHT22;62705;52.400;13.270;2022-08-19T10:14:49;28.30;99.90
17464;DHT22;62705;52.400;13.270;2022-08-19T10:17:15;27.80;99.90
17464;DHT22;62705;52.400;13.270;2022-08-19T10:19:40;27.40;99.90
17464;DHT22;62705;52.400;13.270;2022-08-19T10:22:07;27.50;99.90
17464;DHT22;62705;52.400;13.270;2022-08-19T10:24:32;27.50;99.90
17464;DHT22;62705;52.400;13.270;2022-08-19T10:27:00;27.60;99.90
17464;DHT22;62705;52.400;13.270;2022-08-19T10:29:27;28.10;5.00
17464;DHT22;62705;52.400;13.270;2022-08-19T10:31:53;27.60;99.90
17464;DHT22;62705;52.400;13.270;2022-08-19T10:34:18;27.80;99.90
17464;DHT22;62705;52.400;13.270;2022-08-19T10:36:44;27.90;99.90
17464;DHT22;62705;52.400;13.270;2022-08-19T10:39:10;27.80;99.90
17464;DHT22;62705;52.400;13.270;2022-08-19T10:41:37;28.00;99.90
17464;DHT22;62705;52.400;13.270;2022-08-19T10:44:05;27.90;99.90
17464;DHT22;62705;52.400;13.270;2022-08-19T10:46:35;27.90;99.90
17464;DHT22;62705;52.400;13.270;2022-08-19T10:49:01;28.00;99.90
17464;DHT22;62705;52.400;13.270;2022-08-19T10:51:27;28.30;99.90
17464;DHT22;62705;52.400;13.270;2022-08-19T10:53:53;28.50;99.90
17464;DHT22;62705;52.400;13.270;2022-08-19T10:56:19;28.60;99.90
17464;DHT22;62705;52.400;13.270;2022-08-19T10:58:45;28.60;99.90
17464;DHT22;62705;52.400;13.270;2022-08-19T11:01:10;28.80;99.90
17464;DHT22;62705;52.400;13.270;2022-08-19T11:03:37;28.70;99.90
17464;DHT22;62705;52.400;13.270;2022-08-19T11:06:05;28.80;99.90
17464;DHT22;62705;52.400;13.270;2022-08-19T11:08:31;28.80;99.90
17464;DHT22;62705;52.400;13.270;2022-08-19T11:10:59;28.80;99.90
17464;DHT22;62705;52.400;13.270;2022-08-19T11:13:25;28.80;99.90
17464;DHT22;62705;52.400;13.270;2022-08-19T11:15:57;28.90;99.90
17464;DHT22;62705;52.400;13.270;2022-08-19T11:18:23;28.90;99.90
17464;DHT22;62705;52.400;13.270;2022-08-19T11:20:49;28.90;99.90
17464;DHT22;62705;52.400;13.270;2022-08-19T11:23:15;28.90;99.90
17464;DHT22;62705;52.400;13.270;2022-08-19T11:25:41;28.90;99.90
17464;DHT22;62705;52.400;13.270;2022-08-19T11:28:06;28.90;99.90
17464;DHT22;62705;52.400;13.270;2022-08-19T11:30:32;28.80;99.90
17464;DHT22;62705;52.400;13.270;2022-08-19T11:32:57;28.70;99.90
17464;DHT22;62705;52.400;13.270;2022-08-19T11:35:23;28.90;99.90
17464;DHT22;62705;52.400;13.270;2022-08-19T11:37:50;29.20;99.90
17464;DHT22;62705;52.400;13.270;2022-08-19T11:40:15;29.00;99.90
17464;DHT22;62705;52.400;13.270;2022-08-19T11:42:41;28.90;99.90
17464;DHT22;62705;52.400;13.270;2022-08-19T11:45:07;29.00;99.90
17464;DHT22;62705;52.400;13.270;2022-08-19T11:47:33;29.10;99.90
17464;DHT22;62705;52.400;13.270;2022-08-19T11:49:59;29.10;99.90
17464;DHT22;62705;52.400;13.270;2022-08-19T11:52:24;29.10;99.90
17464;DHT22;62705;52.400;13.270;2022-08-19T11:54:51;29.10;99.90
17464;DHT22;62705;52.400;13.270;2022-08-19T11:57:17;29.20;99.90
17464;DHT22;62705;52.400;13.270;2022-08-19T11:59:47;29.20;99.90
17464;DHT22;62705;52.400;13.270;2022-08-19T12:02:13;29.20;99.90
17464;DHT22;62705;52.400;13.270;2022-08-19T12:04:39;29.30;99.90
17464;DHT22;62705;52.400;13.270;2022-08-19T12:07:04;29.30;99.90
17464;DHT22;62705;52.400;13.270;2022-08-19T12:09:30;29.30;99.90
17464;DHT22;62705;52.400;13.270;2022-08-19T12:11:57;29.30;99.90
17464;DHT22;62705;52.400;13.270;2022-08-19T12:14:22;29.40;99.90
17464;DHT22;62705;52.400;13.270;2022-08-19T12:16:48;29.30;99.90
17464;DHT22;62705;52.400;13.270;2022-08-19T12:19:14;29.30;99.90
17464;DHT22;62705;52.400;13.270;2022-08-19T12:21:39;29.30;99.90
17464;DHT22;62705;52.400;13.270;2022-08-19T12:24:06;29.30;99.90
17464;DHT22;62705;52.400;13.270;2022-08-19T12:26:31;29.40;99.90
17464;DHT22;62705;52.400;13.270;2022-08-19T12:28:59;29.40;99.90
17464;DHT22;62705;52.400;13.270;2022-08-19T12:31:25;29.60;99.90
17464;DHT22;62705;52.400;13.270;2022-08-19T12:33:50;29.20;99.90
17464;DHT22;62705;52.400;13.270;2022-08-19T12:36:16;29.30;99.90
17464;DHT22;62705;52.400;13.270;2022-08-19T12:38:42;29.30;99.90
17464;DHT22;62705;52.400;13.270;2022-08-19T12:41:11;29.30;99.90
17464;DHT22;62705;52.400;13.270;2022-08-19T12:43:37;29.50;99.90
17464;DHT22;62705;52.400;13.270;2022-08-19T12:46:05;29.30;99.90
17464;DHT22;62705;52.400;13.270;2022-08-19T12:48:31;29.20;99.90
17464;DHT22;62705;52.400;13.270;2022-08-19T12:50:57;29.30;99.90
17464;DHT22;62705;52.400;13.270;2022-08-19T12:53:23;29.30;99.90
17464;DHT22;62705;52.400;13.270;2022-08-19T12:55:54;29.30;99.90
17464;DHT22;62705;52.400;13.270;2022-08-19T12:58:20;29.30;99.90
17464;DHT22;62705;52.400;13.270;2022-08-19T13:00:45;29.30;99.90
17464;DHT22;62705;52.400;13.270;2022-08-19T13:03:12;29.40;99.90
17464;DHT22;62705;52.400;13.270;2022-08-19T13:05:38;29.30;99.90
17464;DHT22;62705;52.400;13.270;2022-08-19T13:08:03;29.40;99.90
17464;DHT22;62705;52.400;13.270;2022-08-19T13:10:31;29.40;99.90
17464;DHT22;62705;52.400;13.270;2022-08-19T13:12:57;29.40;99.90
17464;DHT22;62705;52.400;13.270;2022-08-19T13:15:23;29.40;99.90
17464;DHT22;62705;52.400;13.270;2022-08-19T13:17:50;29.40;99.90
17464;DHT22;62705;52.400;13.270;2022-08-19T13:20:19;29.40;99.90
17464;DHT22;62705;52.400;13.270;2022-08-19T13:22:46;29.50;99.90
17464;DHT22;62705;52.400;13.270;2022-08-19T13:25:33;29.70;99.90
17464;DHT22;62705;52.400;13.270;2022-08-19T13:27:59;29.70;99.90
17464;DHT22;62705;52.400;13.270;2022-08-19T13:30:25;29.90;99.90
17464;DHT22;62705;52.400;13.270;2022-08-19T13:32:51;30.00;99.90
17464;DHT22;62705;52.400;13.270;2022-08-19T13:35:17;30.00;99.90
17464;DHT22;62705;52.400;13.270;2022-08-19T13:37:43;30.00;99.90
17464;DHT22;62705;52.400;13.270;2022-08-19T13:40:10;30.00;99.90
17464;DHT22;62705;52.400;13.270;2022-08-19T13:42:37;30.00;99.90
17464;DHT22;62705;52.400;13.270;2022-08-19T13:45:04;30.00;99.90
17464;DHT22;62705;52.400;13.270;2022-08-19T13:47:29;30.00;99.90
17464;DHT22;62705;52.400;13.270;2022-08-19T13:49:55;30.00;99.90
17464;DHT22;62705;52.400;13.270;2022-08-19T13:52:20;30.00;99.90
17464;DHT22;62705;52.400;13.270;2022-08-19T13:54:46;30.00;99.90
17464;DHT22;62705;52.400;13.270;2022-08-19T13:57:13;30.10;99.90
17464;DHT22;62705;52.400;13.270;2022-08-19T13:59:40;30.10;99.90
17464;DHT22;62705;52.400;13.270;2022-08-19T14:02:06;30.10;99.90
17464;DHT22;62705;52.400;13.270;2022-08-19T14:04:31;30.10;99.90
17464;DHT22;62705;52.400;13.270;2022-08-19T14:06:57;30.20;99.90
17464;DHT22;62705;52.400;13.270;2022-08-19T14:09:23;30.10;99.90
17464;DHT22;62705;52.400;13.270;2022-08-19T14:11:48;30.20;99.90
17464;DHT22;62705;52.400;13.270;2022-08-19T14:14:14;30.20;99.90
17464;DHT22;62705;52.400;13.270;2022-08-19T14:16:41;30.10;99.90
17464;DHT22;62705;52.400;13.270;2022-08-19T14:19:06;30.20;99.90
17464;DHT22;62705;52.400;13.270;2022-08-19T14:21:32;30.20;99.90
17464;DHT22;62705;52.400;13.270;2022-08-19T14:23:57;30.10;99.90
17464;DHT22;62705;52.400;13.270;2022-08-19T14:26:23;30.10;99.90
17464;DHT22;62705;52.400;13.270;2022-08-19T14:28:49;30.30;99.90
17464;DHT22;62705;52.400;13.270;2022-08-19T14:31:16;30.00;99.90
17464;DHT22;62705;52.400;13.270;2022-08-19T14:33:43;30.10;99.90
17464;DHT22;62705;52.400;13.270;2022-08-19T14:36:09;30.00;99.90
17464;DHT22;62705;52.400;13.270;2022-08-19T14:38:34;30.00;99.90
17464;DHT22;62705;52.400;13.270;2022-08-19T14:41:08;30.00;99.90
17464;DHT22;62705;52.400;13.270;2022-08-19T14:43:34;30.00;99.90
17464;DHT22;62705;52.400;13.270;2022-08-19T14:46:00;30.00;99.90
17464;DHT22;62705;52.400;13.270;2022-08-19T14:48:25;30.00;99.90
17464;DHT22;62705;52.400;13.270;2022-08-19T14:50:52;30.00;99.90
17464;DHT22;62705;52.400;13.270;2022-08-19T14:53:18;30.10;99.90
17464;DHT22;62705;52.400;13.270;2022-08-19T14:55:44;30.10;99.90
17464;DHT22;62705;52.400;13.270;2022-08-19T14:58:10;30.00;99.90
17464;DHT22;62705;52.400;13.270;2022-08-19T15:00:36;30.00;99.90
17464;DHT22;62705;52.400;13.270;2022-08-19T15:03:02;29.90;99.90
17464;DHT22;62705;52.400;13.270;2022-08-19T15:05:27;30.00;99.90
17464;DHT22;62705;52.400;13.270;2022-08-19T15:07:54;30.00;99.90
17464;DHT22;62705;52.400;13.270;2022-08-19T15:10:20;30.00;99.90
17464;DHT22;62705;52.400;13.270;2022-08-19T15:12:46;29.90;99.90
17464;DHT22;62705;52.400;13.270;2022-08-19T15:15:13;29.90;99.90
17464;DHT22;62705;52.400;13.270;2022-08-19T15:17:39;29.90;99.90
17464;DHT22;62705;52.400;13.270;2022-08-19T15:20:06;29.90;99.90
17464;DHT22;62705;52.400;13.270;2022-08-19T15:22:32;30.00;99.90
17464;DHT22;62705;52.400;13.270;2022-08-19T15:24:59;29.90;99.90
17464;DHT22;62705;52.400;13.270;2022-08-19T15:27:25;29.90;99.90
17464;DHT22;62705;52.400;13.270;2022-08-19T15:29:50;29.90;99.90
17464;DHT22;62705;52.400;13.270;2022-08-19T15:32:16;29.90;99.90
17464;DHT22;62705;52.400;13.270;2022-08-19T15:34:41;29.90;99.90
17464;DHT22;62705;52.400;13.270;2022-08-19T15:37:07;30.00;99.90
17464;DHT22;62705;52.400;13.270;2022-08-19T15:39:33;29.80;99.90
17464;DHT22;62705;52.400;13.270;2022-08-19T15:41:59;29.90;99.90
17464;DHT22;62705;52.400;13.270;2022-08-19T15:44:25;30.00;99.90
17464;DHT22;62705;52.400;13.270;2022-08-19T15:46:51;30.00;99.90
17464;DHT22;62705;52.400;13.270;2022-08-19T15:49:18;30.00;99.90
17464;DHT22;62705;52.400;13.270;2022-08-19T15:51:45;30.00;99.90
17464;DHT22;62705;52.400;13.270;2022-08-19T15:54:13;30.00;99.90
17464;DHT22;62705;52.400;13.270;2022-08-19T15:56:39;29.90;99.90
17464;DHT22;62705;52.400;13.270;2022-08-19T15:59:06;30.00;99.90
17464;DHT22;62705;52.400;13.270;2022-08-19T16:01:31;30.00;99.90
17464;DHT22;62705;52.400;13.270;2022-08-19T16:03:59;30.30;99.90
17464;DHT22;62705;52.400;13.270;2022-08-19T16:06:25;29.80;99.90
17464;DHT22;62705;52.400;13.270;2022-08-19T16:08:51;29.70;99.90
17464;DHT22;62705;52.400;13.270;2022-08-19T16:11:17;29.70;99.90
17464;DHT22;62705;52.400;13.270;2022-08-19T16:13:43;29.70;99.90
17464;DHT22;62705;52.400;13.270;2022-08-19T16:16:10;29.70;99.90
17464;DHT22;62705;52.400;13.270;2022-08-19T16:18:36;29.70;99.90
17464;DHT22;62705;52.400;13.270;2022-08-19T16:21:01;29.80;99.90
17464;DHT22;62705;52.400;13.270;2022-08-19T16:23:27;29.70;99.90
17464;DHT22;62705;52.400;13.270;2022-08-19T16:25:53;29.80;99.90
17464;DHT22;62705;52.400;13.270;2022-08-19T16:28:18;29.80;99.90
17464;DHT22;62705;52.400;13.270;2022-08-19T16:30:44;29.70;99.90
17464;DHT22;62705;52.400;13.270;2022-08-19T16:33:11;29.80;99.90
17464;DHT22;62705;52.400;13.270;2022-08-19T16:35:36;29.80;99.90
17464;DHT22;62705;52.400;13.270;2022-08-19T16:38:02;29.70;99.90
17464;DHT22;62705;52.400;13.270;2022-08-19T16:40:28;29.70;99.90
17464;DHT22;62705;52.400;13.270;2022-08-19T16:42:53;29.60;99.90
17464;DHT22;62705;52.400;13.270;2022-08-19T16:45:19;29.70;99.90
17464;DHT22;62705;52.400;13.270;2022-08-19T16:47:45;29.70;99.90
17464;DHT22;62705;52.400;13.270;2022-08-19T16:50:12;29.70;99.90
17464;DHT22;62705;52.400;13.270;2022-08-19T16:52:37;29.70;99.90
17464;DHT22;62705;52.400;13.270;2022-08-19T16:55:04;30.00;99.90
17464;DHT22;62705;52.400;13.270;2022-08-19T16:57:30;29.70;99.90
17464;DHT22;62705;52.400;13.270;2022-08-19T16:59:55;29.70;99.90
17464;DHT22;62705;52.400;13.270;2022-08-19T17:02:21;29.70;99.90
17464;DHT22;62705;52.400;13.270;2022-08-19T17:04:47;29.90;99.90
17464;DHT22;62705;52.400;13.270;2022-08-19T17:07:14;29.70;99.90
17464;DHT22;62705;52.400;13.270;2022-08-19T17:09:40;29.70;99.90
17464;DHT22;62705;52.400;13.270;2022-08-19T17:12:06;29.70;99.90
17464;DHT22;62705;52.400;13.270;2022-08-19T17:14:31;29.70;99.90
17464;DHT22;62705;52.400;13.270;2022-08-19T17:16:57;29.70;99.90
17464;DHT22;62705;52.400;13.270;2022-08-19T17:19:22;29.70;99.90
17464;DHT22;62705;52.400;13.270;2022-08-19T17:21:48;29.60;99.90
17464;DHT22;62705;52.400;13.270;2022-08-19T17:24:15;29.70;99.90
17464;DHT22;62705;52.400;13.270;2022-08-19T17:26:40;29.70;99.90
17464;DHT22;62705;52.400;13.270;2022-08-19T17:29:06;29.70;99.90
17464;DHT22;62705;52.400;13.270;2022-08-19T17:31:32;29.60;99.90
17464;DHT22;62705;52.400;13.270;2022-08-19T17:33:58;29.70;99.90
17464;DHT22;62705;52.400;13.270;2022-08-19T17:36:24;29.70;99.90
17464;DHT22;62705;52.400;13.270;2022-08-19T17:38:50;29.60;99.90
17464;DHT22;62705;52.400;13.270;2022-08-19T17:41:17;29.70;99.90
17464;DHT22;62705;52.400;13.270;2022-08-19T17:43:43;29.60;99.90
17464;DHT22;62705;52.400;13.270;2022-08-19T17:46:09;29.60;99.90
17464;DHT22;62705;52.400;13.270;2022-08-19T17:48:35;29.60;99.90
17464;DHT22;62705;52.400;13.270;2022-08-19T17:51:12;29.60;99.90
17464;DHT22;62705;52.400;13.270;2022-08-19T17:53:38;29.60;99.90
17464;DHT22;62705;52.400;13.270;2022-08-19T17:56:04;29.70;99.90
17464;DHT22;62705;52.400;13.270;2022-08-19T17:58:31;29.70;99.90
17464;DHT22;62705;52.400;13.270;2022-08-19T18:00:56;30.20;99.90
17464;DHT22;62705;52.400;13.270;2022-08-19T18:03:22;29.80;99.90
17464;DHT22;62705;52.400;13.270;2022-08-19T18:05:47;29.70;99.90
17464;DHT22;62705;52.400;13.270;2022-08-19T18:08:13;29.60;99.90
17464;DHT22;62705;52.400;13.270;2022-08-19T18:10:39;29.70;99.90
17464;DHT22;62705;52.400;13.270;2022-08-19T18:13:04;29.70;99.90
17464;DHT22;62705;52.400;13.270;2022-08-19T18:15:31;29.70;99.90
17464;DHT22;62705;52.400;13.270;2022-08-19T18:17:57;29.70;99.90
17464;DHT22;62705;52.400;13.270;2022-08-19T18:20:23;29.70;99.90
17464;DHT22;62705;52.400;13.270;2022-08-19T18:22:49;29.70;99.90
17464;DHT22;62705;52.400;13.270;2022-08-19T18:25:17;29.60;99.90
17464;DHT22;62705;52.400;13.270;2022-08-19T18:27:42;29.70;99.90
17464;DHT22;62705;52.400;13.270;2022-08-19T18:30:09;29.70;99.90
17464;DHT22;62705;52.400;13.270;2022-08-19T18:32:38;29.70;99.90
17464;DHT22;62705;52.400;13.270;2022-08-19T18:35:08;29.70;99.90
17464;DHT22;62705;52.400;13.270;2022-08-19T18:37:35;29.70;99.90
17464;DHT22;62705;52.400;13.270;2022-08-19T18:40:00;29.70;99.90
17464;DHT22;62705;52.400;13.270;2022-08-19T18:42:26;29.70;99.90
17464;DHT22;62705;52.400;13.270;2022-08-19T18:44:52;29.70;99.90
17464;DHT22;62705;52.400;13.270;2022-08-19T18:47:17;29.60;99.90
17464;DHT22;62705;52.400;13.270;2022-08-19T18:49:44;30.10;99.90
17464;DHT22;62705;52.400;13.270;2022-08-19T18:52:10;29.60;99.90
17464;DHT22;62705;52.400;13.270;2022-08-19T18:54:35;29.70;99.90
17464;DHT22;62705;52.400;13.270;2022-08-19T18:57:02;29.60;99.90
17464;DHT22;62705;52.400;13.270;2022-08-19T18:59:28;29.60;99.90
17464;DHT22;62705;52.400;13.270;2022-08-19T19:01:55;29.60;99.90
17464;DHT22;62705;52.400;13.270;2022-08-19T19:04:25;29.70;99.90
17464;DHT22;62705;52.400;13.270;2022-08-19T19:06:52;29.60;99.90
17464;DHT22;62705;52.400;13.270;2022-08-19T19:09:21;29.70;99.90
17464;DHT22;62705;52.400;13.270;2022-08-19T19:11:50;29.70;99.90
17464;DHT22;62705;52.400;13.270;2022-08-19T19:14:17;29.90;99.90
17464;DHT22;62705;52.400;13.270;2022-08-19T19:16:43;29.70;99.90
17464;DHT22;62705;52.400;13.270;2022-08-19T19:19:09;29.70;99.90
17464;DHT22;62705;52.400;13.270;2022-08-19T19:21:34;29.60;99.90
17464;DHT22;62705;52.400;13.270;2022-08-19T19:24:02;29.70;99.90
17464;DHT22;62705;52.400;13.270;2022-08-19T19:26:27;29.70;99.90
17464;DHT22;62705;52.400;13.270;2022-08-19T19:28:53;29.60;99.90
17464;DHT22;62705;52.400;13.270;2022-08-19T19:31:20;29.70;99.90
17464;DHT22;62705;52.400;13.270;2022-08-19T19:33:46;29.70;99.90
17464;DHT22;62705;52.400;13.270;2022-08-19T19:36:12;29.60;99.90
17464;DHT22;62705;52.400;13.270;2022-08-19T19:38:37;29.70;99.90
17464;DHT22;62705;52.400;13.270;2022-08-19T19:41:04;29.70;99.90
17464;DHT22;62705;52.400;13.270;2022-08-19T19:43:30;29.70;99.90
17464;DHT22;62705;52.400;13.270;2022-08-19T19:45:56;29.70;99.90
17464;DHT22;62705;52.400;13.270;2022-08-19T19:48:21;29.70;99.90
17464;DHT22;62705;52.400;13.270;2022-08-19T19:50:47;29.70;99.90
17464;DHT22;62705;52.400;13.270;2022-08-19T19:53:12;29.70;99.90
17464;DHT22;62705;52.400;13.270;2022-08-19T19:55:38;29.60;99.90
17464;DHT22;62705;52.400;13.270;2022-08-19T19:58:05;29.70;99.90
17464;DHT22;62705;52.400;13.270;2022-08-19T20:00:31;29.60;99.90
17464;DHT22;62705;52.400;13.270;2022-08-19T20:02:57;29.50;99.90
17464;DHT22;62705;52.400;13.270;2022-08-19T20:05:23;29.50;99.90
17464;DHT22;62705;52.400;13.270;2022-08-19T20:07:49;29.60;99.90
17464;DHT22;62705;52.400;13.270;2022-08-19T20:10:15;29.60;99.90
17464;DHT22;62705;52.400;13.270;2022-08-19T20:12:41;29.60;99.90
17464;DHT22;62705;52.400;13.270;2022-08-19T20:15:08;29.50;99.90
17464;DHT22;62705;52.400;13.270;2022-08-19T20:17:34;29.50;99.90
17464;DHT22;62705;52.400;13.270;2022-08-19T20:19:59;29.50;99.90
17464;DHT22;62705;52.400;13.270;2022-08-19T20:22:25;29.50;99.90
17464;DHT22;62705;52.400;13.270;2022-08-19T20:24:50;29.40;99.90
17464;DHT22;62705;52.400;13.270;2022-08-19T20:27:16;29.40;99.90
17464;DHT22;62705;52.400;13.270;2022-08-19T20:29:42;29.40;99.90
17464;DHT22;62705;52.400;13.270;2022-08-19T20:32:09;29.20;99.90
17464;DHT22;62705;52.400;13.270;2022-08-19T20:34:34;29.60;99.90
17464;DHT22;62705;52.400;13.270;2022-08-19T20:37:00;29.20;99.90
17464;DHT22;62705;52.400;13.270;2022-08-19T20:39:26;29.20;99.90
17464;DHT22;62705;52.400;13.270;2022-08-19T20:41:52;29.10;99.90
17464;DHT22;62705;52.400;13.270;2022-08-19T20:44:17;29.20;99.90
17464;DHT22;62705;52.400;13.270;2022-08-19T20:46:43;29.10;99.90
17464;DHT22;62705;52.400;13.270;2022-08-19T20:49:10;29.10;99.90
17464;DHT22;62705;52.400;13.270;2022-08-19T20:51:36;29.00;99.90
17464;DHT22;62705;52.400;13.270;2022-08-19T20:54:02;29.10;99.90
17464;DHT22;62705;52.400;13.270;2022-08-19T20:56:27;29.10;99.90
17464;DHT22;62705;52.400;13.270;2022-08-19T20:58:53;29.00;99.90
17464;DHT22;62705;52.400;13.270;2022-08-19T21:01:19;28.90;99.90
17464;DHT22;62705;52.400;13.270;2022-08-19T21:03:45;28.90;99.90
17464;DHT22;62705;52.400;13.270;2022-08-19T21:06:13;28.90;99.90
17464;DHT22;62705;52.400;13.270;2022-08-19T21:08:38;28.90;99.90
17464;DHT22;62705;52.400;13.270;2022-08-19T21:11:05;28.80;99.90
17464;DHT22;62705;52.400;13.270;2022-08-19T21:13:31;28.80;99.90
17464;DHT22;62705;52.400;13.270;2022-08-19T21:15:57;28.80;99.90
17464;DHT22;62705;52.400;13.270;2022-08-19T21:18:22;28.90;99.90
17464;DHT22;62705;52.400;13.270;2022-08-19T21:20:49;29.00;99.90
17464;DHT22;62705;52.400;13.270;2022-08-19T21:23:18;29.00;99.90
17464;DHT22;62705;52.400;13.270;2022-08-19T21:25:44;29.00;99.90
17464;DHT22;62705;52.400;13.270;2022-08-19T21:28:10;29.10;99.90
17464;DHT22;62705;52.400;13.270;2022-08-19T21:30:35;29.20;99.90
17464;DHT22;62705;52.400;13.270;2022-08-19T21:33:03;29.10;99.90
17464;DHT22;62705;52.400;13.270;2022-08-19T21:35:29;29.00;99.90
17464;DHT22;62705;52.400;13.270;2022-08-19T21:37:55;29.00;99.90
17464;DHT22;62705;52.400;13.270;2022-08-19T21:40:25;29.00;99.90
17464;DHT22;62705;52.400;13.270;2022-08-19T21:42:50;28.90;99.40
17464;DHT22;62705;52.400;13.270;2022-08-19T21:45:16;28.90;99.70
17464;DHT22;62705;52.400;13.270;2022-08-19T21:47:42;28.90;99.50
17464;DHT22;62705;52.400;13.270;2022-08-19T21:50:09;29.00;99.90
17464;DHT22;62705;52.400;13.270;2022-08-19T21:52:36;29.00;99.90
17464;DHT22;62705;52.400;13.270;2022-08-19T21:55:02;29.00;99.90
17464;DHT22;62705;52.400;13.270;2022-08-19T21:57:30;29.00;99.90
17464;DHT22;62705;52.400;13.270;2022-08-19T21:59:56;29.00;99.90
17464;DHT22;62705;52.400;13.270;2022-08-19T22:02:21;29.00;99.90
17464;DHT22;62705;52.400;13.270;2022-08-19T22:04:47;29.00;99.90
17464;DHT22;62705;52.400;13.270;2022-08-19T22:07:13;29.00;99.90
17464;DHT22;62705;52.400;13.270;2022-08-19T22:09:39;29.00;99.70
17464;DHT22;62705;52.400;13.270;2022-08-19T22:12:07;29.10;99.70
17464;DHT22;62705;52.400;13.270;2022-08-19T22:14:34;29.00;99.70
17464;DHT22;62705;52.400;13.270;2022-08-19T22:16:59;29.00;99.60
17464;DHT22;62705;52.400;13.270;2022-08-19T22:19:25;29.10;99.40
17464;DHT22;62705;52.400;13.270;2022-08-19T22:21:51;29.10;99.40
17464;DHT22;62705;52.400;13.270;2022-08-19T22:24:17;29.10;99.40
17464;DHT22;62705;52.400;13.270;2022-08-19T22:26:42;29.10;99.40
17464;DHT22;62705;52.400;13.270;2022-08-19T22:29:08;29.10;99.40
17464;DHT22;62705;52.400;13.270;2022-08-19T22:31:35;29.20;99.20
17464;DHT22;62705;52.400;13.270;2022-08-19T22:34:01;29.20;99.20
17464;DHT22;62705;52.400;13.270;2022-08-19T22:36:26;29.20;99.00
17464;DHT22;62705;52.400;13.270;2022-08-19T22:38:52;29.20;99.10
17464;DHT22;62705;52.400;13.270;2022-08-19T22:41:18;29.20;98.90
17464;DHT22;62705;52.400;13.270;2022-08-19T22:43:43;29.20;98.80
17464;DHT22;62705;52.400;13.270;2022-08-19T22:46:09;29.20;98.80
17464;DHT22;62705;52.400;13.270;2022-08-19T22:48:36;29.20;99.00
17464;DHT22;62705;52.400;13.270;2022-08-19T22:51:01;29.10;98.90
17464;DHT22;62705;52.400;13.270;2022-08-19T22:53:27;29.10;99.10
17464;DHT22;62705;52.400;13.270;2022-08-19T22:55:53;29.10;99.20
17464;DHT22;62705;52.400;13.270;2022-08-19T22:58:18;29.10;99.90
17464;DHT22;62705;52.400;13.270;2022-08-19T23:00:44;29.10;99.90
17464;DHT22;62705;52.400;13.270;2022-08-19T23:03:09;29.30;99.90
17464;DHT22;62705;52.400;13.270;2022-08-19T23:05:36;28.90;99.40
17464;DHT22;62705;52.400;13.270;2022-08-19T23:08:02;29.10;99.90
17464;DHT22;62705;52.400;13.270;2022-08-19T23:10:28;29.10;99.60
17464;DHT22;62705;52.400;13.270;2022-08-19T23:12:56;29.40;99.40
17464;DHT22;62705;52.400;13.270;2022-08-19T23:15:24;29.50;99.40
17464;DHT22;62705;52.400;13.270;2022-08-19T23:17:50;29.20;99.20
17464;DHT22;62705;52.400;13.270;2022-08-19T23:20:16;29.20;99.10
17464;DHT22;62705;52.400;13.270;2022-08-19T23:22:44;29.20;99.30
17464;DHT22;62705;52.400;13.270;2022-08-19T23:25:13;29.10;99.20
17464;DHT22;62705;52.400;13.270;2022-08-19T23:27:39;29.10;99.00
17464;DHT22;62705;52.400;13.270;2022-08-19T23:30:05;29.10;99.10
17464;DHT22;62705;52.400;13.270;2022-08-19T23:32:33;29.10;99.30
17464;DHT22;62705;52.400;13.270;2022-08-19T23:34:59;29.10;99.10
17464;DHT22;62705;52.400;13.270;2022-08-19T23:37:25;29.20;99.00
17464;DHT22;62705;52.400;13.270;2022-08-19T23:39:52;29.20;98.80
17464;DHT22;62705;52.400;13.270;2022-08-19T23:42:17;29.10;98.70
17464;DHT22;62705;52.400;13.270;2022-08-19T23:44:43;29.00;98.90
17464;DHT22;62705;52.400;13.270;2022-08-19T23:47:08;29.00;99.10
17464;DHT22;62705;52.400;13.270;2022-08-19T23:49:34;29.00;99.10
17464;DHT22;62705;52.400;13.270;2022-08-19T23:52:00;29.00;99.30
17464;DHT22;62705;52.400;13.270;2022-08-19T23:54:25;29.00;99.30
17464;DHT22;62705;52.400;13.270;2022-08-19T23:56:52;28.90;98.60
17464;DHT22;62705;52.400;13.270;2022-08-19T23:59:18;28.90;98.70
